Allyn, WA

5:46 PM PDT on August 22, 2014 (GMT -0700)
Happy Hollow Estates | Change Station
CLOSE
Current Station
Personal Weather Station
Location: Belfair, WA
Elevation: 203 ft
Nearby Weather Stations

Elev 203 ft 47.38 °N, 122.92 °W | Updated 8 seconds ago

Clear
Clear
78.3 °F
Feels Like 79 °F
N
3.8
Wind Variable Wind from SE
Gusts 3.8 mph

Today
High -- | Low -- °F
--% Chance of Precip.
Yesterday
High -- | Low -- °F
Precip. -- in
6:17 AM 8:10 PM
Waning Crescent, 6% visible
Pressure 30.10 in
Visibility 10.0 miles
Clouds Clear
Heat Index 79 °F
Dew Point 56 °F
Humidity 47%
Rainfall 0.00 in
Snow Depth Not available.
UV 2 out of 12
Pollen 3.70 out of 12
PM2.5 Good
Flu Activity Not available.
METAR KPWT 230035Z 04005KT 10SM CLR 23/14 A3010 RMK AO1

More Conditions Fewer Conditions

Pressure 30.10 in
Visibility 10.0 miles
Clouds Clear
Heat Index 79 °F
Dew Point 56 °F
Humidity 47%
Rainfall 0.00 in
Snow Depth Not available.
UV 2 out of 12
Pollen 3.70 out of 12
PM2.5 Good
Flu Activity Not available.
METAR KPWT 230035Z 04005KT 10SM CLR 23/14 A3010 RMK AO1

More Conditions Fewer Conditions

10-Day Weather Forecast

Almanac

Astronomy

Aug. 22, 2014 Rise Set
Actual Time 6:17 AM PDT 8:10 PM PDT
Civil Twilight 5:44 AM PDT 8:43 PM PDT
Nautical Twilight 5:04 AM PDT 9:23 PM PDT
Astronomical Twilight 4:19 AM PDT 10:07 PM PDT
Moon 3:39 AM PDT (8/22) 6:25 PM PDT (8/22)
Length of Visible Light 14h 58m
Length of Day
13h 53m
Tomorrow will be 3m 11s shorter.
Waning Crescent, 6% of the Moon is Illuminated
Today
Waning Crescent
Aug 25
New
Sep 2
First Quarter
Sep 8
Full
Sep 15
Last Quarter

Today's Extremes

State Highs State Lows

Community

WunderPhotos

Upload Photos

1,746,326 photos uploaded!

WunderBlogs® & News

Nearby

Air Quality

  Air Quality AQ Index Pollutant
Yesterday Good
OZONE
Yesterday Good
PM2.5
Current Good
PM2.5

Snow Depth

Station Depth Elevation
Burnt Mountain 0 in 4200 ft
Alpine Meadows 0 in 3500 ft
Meadows Pass 0 in 3500 ft
Stampede Pass 0 in 3860 ft
Sasse Ridge 0 in 4200 ft

Earthquake Activity

City Distance Mag. Time & Date
No recent earthquake activity has been reported nearby.
Minimum magnitude displayed is 2.5.

Coastal Water Temperatures

Place Temperature
Port Townsend, WA 53.1 °F
Seattle, WA 55.9 °F
Friday Harbor, WA 52.0 °F
Tacoma, WA 55.9 °F

Nearby Weather Stations